Time;durP1;ratioP1;P1;durP2;ratioP2;P2;SDS_P1;SDS_P2;PMS_P1;PMS_P2;Temp;Humidity;BMP_temperature;BMP_pressure;BME280_temperature;BME280_humidity;BME280_pressure;Samples;Min_cycle;Max_cycle;Signal;HPM_P1;HPM_P2
2023/08/25 00:05:01;;;;;;;4.20;3.80;;;23.30;99.90;;;;;;10476203;28;20197;-83
2023/08/25 00:10:04;;;;;;;4.70;4.30;;;23.30;99.90;;;;;;10502955;28;20248;-84
2023/08/25 00:15:09;;;;;;;4.07;3.77;;;23.30;99.90;;;;;;10524242;28;20216;-83
2023/08/25 00:20:12;;;;;;;4.10;3.80;;;23.30;99.90;;;;;;10515788;28;20714;-83
2023/08/25 00:25:14;;;;;;;4.07;3.60;;;23.40;99.90;;;;;;10506475;28;20304;-84
2023/08/25 00:30:17;;;;;;;3.83;3.53;;;23.40;99.90;;;;;;10498035;28;20213;-84
2023/08/25 00:35:20;;;;;;;3.87;3.57;;;23.40;99.90;;;;;;10495968;28;20228;-84
2023/08/25 00:40:22;;;;;;;3.80;3.60;;;23.40;99.90;;;;;;10504889;28;20217;-83
2023/08/25 00:45:25;;;;;;;3.90;3.60;;;23.40;99.90;;;;;;10508811;28;20220;-84
2023/08/25 00:50:29;;;;;;;3.87;3.57;;;23.50;99.90;;;;;;10486709;28;20234;-84
2023/08/25 00:55:31;;;;;;;3.63;3.30;;;23.50;99.90;;;;;;10508033;28;20212;-85
2023/08/25 01:00:36;;;;;;;3.93;3.73;;;23.40;99.90;;;;;;10504773;28;20307;-84
2023/08/25 01:05:39;;;;;;;3.70;3.40;;;23.50;99.90;;;;;;10483333;28;20197;-84
2023/08/25 01:10:50;;;;;;;3.83;3.53;;;23.50;99.90;;;;;;10495693;28;20217;-84
2023/08/25 01:15:55;;;;;;;4.70;4.27;;;23.50;99.90;;;;;;10487306;28;20254;-85
2023/08/25 01:20:58;;;;;;;3.90;3.47;;;23.50;99.90;;;;;;10492917;28;20692;-85
2023/08/25 01:26:03;;;;;;;4.13;3.83;;;23.40;99.90;;;;;;10512508;28;20196;-83
2023/08/25 01:31:05;;;;;;;4.83;4.43;;;23.40;99.90;;;;;;10511762;28;20217;-84
2023/08/25 01:36:18;;;;;;;4.00;3.70;;;23.50;99.90;;;;;;10508015;28;20202;-84
2023/08/25 01:41:27;;;;;;;4.13;3.83;;;23.50;99.90;;;;;;10491959;28;20224;-85
2023/08/25 01:46:31;;;;;;;4.40;3.93;;;23.40;99.90;;;;;;10494871;28;20190;-85
2023/08/25 01:51:34;;;;;;;3.83;3.53;;;23.40;99.90;;;;;;10491843;28;20740;-84
2023/08/25 01:56:38;;;;;;;6.30;3.67;;;23.40;99.90;;;;;;10490189;28;20190;-83
2023/08/25 02:01:40;;;;;;;4.20;3.90;;;23.40;99.90;;;;;;10509110;28;20276;-83
2023/08/25 02:06:42;;;;;;;4.20;3.70;;;23.30;99.90;;;;;;10475835;28;20291;-84
2023/08/25 02:11:46;;;;;;;4.50;4.10;;;23.30;99.90;;;;;;10494075;28;20221;-84
2023/08/25 02:16:54;;;;;;;4.00;3.67;;;23.30;99.90;;;;;;10512314;28;20711;-84
2023/08/25 02:21:56;;;;;;;4.63;4.10;;;23.20;99.90;;;;;;10510066;28;20208;-84
2023/08/25 02:27:00;;;;;;;3.90;3.63;;;23.20;99.90;;;;;;10521324;28;20224;-84
2023/08/25 02:32:03;;;;;;;5.53;4.10;;;23.10;99.90;;;;;;10490493;28;20221;-84
2023/08/25 02:37:05;;;;;;;7.20;4.50;;;23.10;99.90;;;;;;10508769;28;20210;-84
2023/08/25 02:42:10;;;;;;;4.20;3.90;;;23.10;99.90;;;;;;10477028;28;20216;-84
2023/08/25 02:47:12;;;;;;;3.77;3.53;;;23.20;99.90;;;;;;10498566;28;20708;-84
2023/08/25 02:52:15;;;;;;;4.20;3.90;;;23.20;99.90;;;;;;10494769;28;20245;-85
2023/08/25 02:57:18;;;;;;;4.00;3.50;;;23.20;99.90;;;;;;10495684;28;20281;-84
2023/08/25 03:02:20;;;;;;;3.90;3.60;;;23.20;99.90;;;;;;10441417;28;20197;-84
2023/08/25 03:07:24;;;;;;;4.00;3.70;;;23.30;99.90;;;;;;10499224;28;20220;-84
2023/08/25 03:12:28;;;;;;;4.03;3.80;;;23.30;99.90;;;;;;10491727;28;20221;-84
2023/08/25 03:17:31;;;;;;;4.27;3.87;;;23.30;99.90;;;;;;10492775;28;20245;-84
2023/08/25 03:22:35;;;;;;;3.93;3.63;;;23.30;99.90;;;;;;10490173;28;20209;-83
2023/08/25 03:27:39;;;;;;;4.00;3.60;;;23.30;99.90;;;;;;10508707;28;20684;-83
2023/08/25 03:32:42;;;;;;;4.00;3.80;;;23.30;99.90;;;;;;10488963;28;20225;-84
2023/08/25 03:37:45;;;;;;;4.23;3.90;;;23.30;99.90;;;;;;10491271;28;20216;-84
2023/08/25 03:42:48;;;;;;;3.80;3.40;;;23.30;99.90;;;;;;10491628;28;20193;-84
2023/08/25 03:47:51;;;;;;;5.10;3.70;;;23.30;99.90;;;;;;10475441;28;20252;-84
2023/08/25 03:52:53;;;;;;;3.40;3.20;;;23.30;99.90;;;;;;10490395;28;20217;-84
2023/08/25 03:57:56;;;;;;;4.40;4.10;;;23.20;99.90;;;;;;10496590;28;20688;-83
2023/08/25 04:02:58;;;;;;;4.27;3.87;;;23.20;99.90;;;;;;10476914;28;20201;-84
2023/08/25 04:08:01;;;;;;;4.57;4.20;;;23.20;99.90;;;;;;10494170;28;20328;-83
2023/08/25 04:13:04;;;;;;;4.73;4.40;;;23.10;99.90;;;;;;10447207;28;20564;-84
2023/08/25 04:18:07;;;;;;;4.97;3.70;;;23.10;99.90;;;;;;10511909;28;20275;-84
2023/08/25 04:23:09;;;;;;;3.33;3.10;;;23.10;99.90;;;;;;10476219;28;20577;-84
2023/08/25 04:28:12;;;;;;;4.10;3.70;;;23.10;99.90;;;;;;10494547;28;20236;-84
2023/08/25 04:33:15;;;;;;;4.40;4.00;;;23.10;99.90;;;;;;10492749;28;20254;-84
2023/08/25 04:38:17;;;;;;;3.80;3.50;;;23.10;99.90;;;;;;10489363;28;20217;-85
2023/08/25 04:43:21;;;;;;;4.37;4.00;;;23.10;99.90;;;;;;10491018;28;20283;-84
2023/08/25 04:48:24;;;;;;;4.00;3.70;;;23.10;99.90;;;;;;10491500;28;20247;-84
2023/08/25 04:53:26;;;;;;;3.60;3.40;;;23.10;99.90;;;;;;10490023;28;20200;-84
2023/08/25 04:58:31;;;;;;;3.23;2.93;;;23.10;99.90;;;;;;10492790;28;20235;-84
2023/08/25 05:03:34;;;;;;;4.20;3.73;;;23.10;99.90;;;;;;10501992;28;20209;-84
2023/08/25 05:08:36;;;;;;;8.40;3.83;;;23.10;99.90;;;;;;10494475;22;20249;-80
2023/08/25 05:13:40;;;;;;;4.30;4.00;;;23.10;99.90;;;;;;10454398;28;20217;-80
2023/08/25 05:18:45;;;;;;;4.67;4.37;;;23.20;99.90;;;;;;10414654;28;20229;-80
2023/08/25 05:23:48;;;;;;;5.00;3.90;;;23.20;99.90;;;;;;10452414;28;20259;-80
2023/08/25 05:28:53;;;;;;;5.93;4.50;;;23.30;99.90;;;;;;10481074;28;20233;-80
2023/08/25 05:33:55;;;;;;;6.53;4.70;;;23.40;99.90;;;;;;10475697;28;20201;-79
2023/08/25 05:39:14;;;;;;;9.43;3.03;;;23.50;99.90;;;;;;10438491;28;20220;-80
2023/08/25 05:44:17;;;;;;;4.90;3.90;;;23.60;99.90;;;;;;10479853;28;20261;-80
2023/08/25 05:49:19;;;;;;;4.70;4.30;;;23.70;99.90;;;;;;10478065;28;20218;-80
2023/08/25 05:54:21;;;;;;;5.20;3.83;;;23.80;99.90;;;;;;10403789;28;20222;-80
2023/08/25 05:59:25;;;;;;;6.23;3.93;;;23.90;99.90;;;;;;10439064;28;20215;-80
2023/08/25 06:04:27;;;;;;;4.07;3.77;;;24.00;99.90;;;;;;10477716;28;20198;-80
2023/08/25 06:09:30;;;;;;;5.73;4.27;;;24.00;99.90;;;;;;10444554;28;20241;-80
2023/08/25 06:14:35;;;;;;;6.63;4.03;;;24.00;99.90;;;;;;10470936;28;20206;-81
2023/08/25 06:19:37;;;;;;;3.90;3.60;;;24.00;99.90;;;;;;10464207;28;20214;-82
2023/08/25 06:24:39;;;;;;;4.80;3.77;;;24.10;99.90;;;;;;10462913;28;20599;-80
2023/08/25 06:29:43;;;;;;;4.20;3.90;;;24.00;99.90;;;;;;10470286;28;20218;-80
2023/08/25 06:34:48;;;;;;;5.60;4.27;;;24.00;99.90;;;;;;10504099;28;20197;-80
2023/08/25 06:39:50;;;;;;;4.90;4.60;;;24.00;99.90;;;;;;10471604;28;20282;-80
2023/08/25 06:44:53;;;;;;;7.40;3.93;;;24.00;99.90;;;;;;10433017;28;20202;-80
2023/08/25 06:49:55;;;;;;;7.53;3.60;;;24.00;99.90;;;;;;10480746;28;20251;-80
2023/08/25 06:54:57;;;;;;;4.87;4.50;;;23.90;99.90;;;;;;10448749;28;20195;-80
2023/08/25 07:00:01;;;;;;;5.00;4.47;;;23.90;99.90;;;;;;10437431;28;20290;-80
2023/08/25 07:05:04;;;;;;;5.33;4.80;;;23.80;99.90;;;;;;10469748;28;20217;-80
2023/08/25 07:10:07;;;;;;;5.23;4.53;;;23.70;99.90;;;;;;10436007;28;20234;-80
2023/08/25 07:15:11;;;;;;;4.80;4.30;;;23.60;99.90;;;;;;10471394;28;20198;-80
2023/08/25 07:20:13;;;;;;;5.40;5.00;;;23.40;99.90;;;;;;10440559;28;20219;-80
2023/08/25 07:25:15;;;;;;;8.53;4.77;;;23.40;99.90;;;;;;10472537;28;20255;-80
2023/08/25 07:30:19;;;;;;;4.80;4.47;;;23.20;99.90;;;;;;10425534;28;20218;-79
2023/08/25 07:35:21;;;;;;;14.03;7.87;;;23.00;99.90;;;;;;10468082;28;20628;-80
2023/08/25 07:40:23;;;;;;;9.30;8.60;;;22.90;99.90;;;;;;10428907;28;20261;-81
2023/08/25 07:45:26;;;;;;;9.00;8.50;;;22.60;99.90;;;;;;10445996;28;20200;-81
2023/08/25 07:50:30;;;;;;;11.00;10.20;;;22.30;99.90;;;;;;10440369;28;20277;-82
2023/08/25 07:55:32;;;;;;;11.53;10.90;;;22.00;99.90;;;;;;10465883;28;20198;-81
2023/08/25 08:00:36;;;;;;;12.37;11.73;;;21.80;99.90;;;;;;10471154;28;20273;-81
2023/08/25 08:05:45;;;;;;;13.17;12.33;;;21.60;99.90;;;;;;10427189;28;20201;-82
2023/08/25 08:10:47;;;;;;;13.97;12.70;;;21.50;99.90;;;;;;10457562;28;20249;-82
2023/08/25 08:15:51;;;;;;;9.80;9.00;;;21.40;99.90;;;;;;10433481;28;20194;-82
2023/08/25 08:20:54;;;;;;;13.50;12.77;;;21.30;99.90;;;;;;10449577;28;20213;-82
2023/08/25 08:25:58;;;;;;;13.20;12.33;;;21.30;99.90;;;;;;10427638;28;20210;-82
2023/08/25 08:31:05;;;;;;;14.60;13.40;;;21.30;99.90;;;;;;10428855;28;20226;-82
2023/08/25 08:36:07;;;;;;;15.03;14.03;;;21.20;99.90;;;;;;10428435;28;20207;-83
2023/08/25 08:41:11;;;;;;;15.23;13.93;;;21.10;99.90;;;;;;10430794;28;20222;-82
2023/08/25 08:46:16;;;;;;;13.70;12.50;;;21.00;99.90;;;;;;10435234;28;20208;-84
2023/08/25 08:51:19;;;;;;;13.77;12.77;;;21.00;99.90;;;;;;10448895;28;20253;-82
2023/08/25 08:56:22;;;;;;;13.90;12.90;;;21.00;99.90;;;;;;10407374;28;20560;-82
2023/08/25 09:01:26;;;;;;;14.97;13.80;;;21.00;99.90;;;;;;10401620;28;20687;-82
2023/08/25 09:06:32;;;;;;;10.70;10.00;;;21.00;99.90;;;;;;10446781;28;20206;-82
2023/08/25 09:11:35;;;;;;;14.33;13.33;;;21.10;99.90;;;;;;10438486;28;20229;-82
2023/08/25 09:16:38;;;;;;;14.00;13.20;;;21.20;99.90;;;;;;10433411;28;20193;-82
2023/08/25 09:21:46;;;;;;;15.13;14.17;;;21.30;99.90;;;;;;10439973;28;20217;-82
2023/08/25 09:26:49;;;;;;;15.43;14.43;;;21.30;99.90;;;;;;10416214;28;20224;-84
2023/08/25 09:31:52;;;;;;;15.63;14.60;;;21.30;99.90;;;;;;10420150;28;20296;-83
2023/08/25 09:36:55;;;;;;;14.40;13.70;;;21.40;99.90;;;;;;10456994;28;20202;-83
2023/08/25 09:42:06;;;;;;;15.10;14.30;;;21.50;99.90;;;;;;10434002;28;20268;-82
2023/08/25 09:47:10;;;;;;;16.60;15.50;;;21.50;99.90;;;;;;10455458;28;20212;-82
2023/08/25 09:52:16;;;;;;;16.50;15.27;;;21.60;99.90;;;;;;10438956;28;20272;-84
2023/08/25 09:57:19;;;;;;;15.30;14.37;;;21.80;99.90;;;;;;10448255;28;20583;-83
2023/08/25 10:02:23;;;;;;;10.83;10.13;;;22.10;99.90;;;;;;10447550;28;20182;-82
2023/08/25 10:07:26;;;;;;;14.50;13.70;;;22.50;99.90;;;;;;10447211;28;20190;-83
2023/08/25 10:12:29;;;;;;;14.43;13.63;;;22.80;99.90;;;;;;10457830;28;20220;-83
2023/08/25 10:17:36;;;;;;;11.23;10.63;;;22.90;99.90;;;;;;10440956;28;20560;-82
2023/08/25 10:22:41;;;;;;;11.40;10.70;;;23.00;99.90;;;;;;10463579;28;20277;-82
2023/08/25 10:27:43;;;;;;;10.23;9.50;;;23.20;99.90;;;;;;10446514;28;20225;-83
2023/08/25 10:32:51;;;;;;;8.60;8.00;;;23.50;99.90;;;;;;10462656;28;20225;-82
2023/08/25 10:37:53;;;;;;;9.87;9.17;;;23.60;99.90;;;;;;10429361;28;20785;-82
2023/08/25 10:42:58;;;;;;;8.67;8.00;;;23.60;99.90;;;;;;10462885;28;20190;-82
2023/08/25 10:48:02;;;;;;;6.10;5.60;;;23.50;99.90;;;;;;10447876;28;20245;-82
2023/08/25 10:53:05;;;;;;;6.67;5.93;;;23.40;99.90;;;;;;10463337;28;20348;-82
2023/08/25 10:58:07;;;;;;;5.00;4.70;;;23.40;99.90;;;;;;10455663;28;20252;-82
2023/08/25 11:03:11;;;;;;;4.47;4.07;;;23.50;99.90;;;;;;10449471;28;20245;-82
2023/08/25 11:08:29;;;;;;;4.23;3.80;;;23.50;99.90;;;;;;10477940;22;20248;-83
2023/08/25 11:13:31;;;;;;;5.03;4.20;;;23.70;99.90;;;;;;10439800;28;20297;-84
2023/08/25 11:18:35;;;;;;;5.73;4.20;;;23.90;99.90;;;;;;10440317;28;20696;-84
2023/08/25 11:23:41;;;;;;;4.37;4.00;;;24.00;99.90;;;;;;10464990;28;20198;-85
2023/08/25 11:28:46;;;;;;;5.13;4.67;;;23.90;99.90;;;;;;10432986;28;20694;-85
2023/08/25 11:33:51;;;;;;;4.93;4.53;;;23.90;99.90;;;;;;10459821;28;20223;-86
2023/08/25 11:38:53;;;;;;;4.97;4.43;;;24.10;99.90;;;;;;10437708;28;20218;-84
2023/08/25 11:43:55;;;;;;;4.70;4.40;;;24.30;99.90;;;;;;10447586;28;20186;-85
2023/08/25 11:48:59;;;;;;;4.73;4.43;;;24.30;99.90;;;;;;10469096;28;20229;-85
2023/08/25 11:54:01;;;;;;;5.07;4.67;;;24.40;99.90;;;;;;10469838;28;20635;-85
2023/08/25 11:59:03;;;;;;;4.73;4.43;;;24.40;99.90;;;;;;10468765;28;20225;-85
2023/08/25 12:04:23;;;;;;;4.67;4.37;;;24.40;99.90;;;;;;10469539;28;20210;-85
2023/08/25 12:09:26;;;;;;;4.70;4.30;;;24.60;99.90;;;;;;10465815;28;20237;-84
2023/08/25 12:14:29;;;;;;;5.17;4.70;;;24.80;99.90;;;;;;10465397;28;20219;-85
2023/08/25 12:19:34;;;;;;;5.70;3.87;;;24.90;99.90;;;;;;10466519;28;20221;-84
2023/08/25 12:24:36;;;;;;;5.20;4.80;;;25.00;99.90;;;;;;10417114;28;20202;-83
2023/08/25 12:29:39;;;;;;;5.30;4.80;;;24.90;99.90;;;;;;10406791;28;20214;-85
2023/08/25 12:34:45;;;;;;;4.87;4.47;;;24.90;99.90;;;;;;10409828;28;20646;-84
2023/08/25 12:39:48;;;;;;;5.30;4.77;;;24.80;99.90;;;;;;10405918;28;20720;-83
2023/08/25 12:44:50;;;;;;;3.93;3.53;;;24.80;99.90;;;;;;10426362;28;20211;-84
2023/08/25 12:49:53;;;;;;;6.10;5.50;;;24.90;99.90;;;;;;10403064;28;20272;-84
2023/08/25 12:54:55;;;;;;;6.33;4.70;;;24.90;99.90;;;;;;10422387;28;20198;-85
2023/08/25 12:59:57;;;;;;;6.33;4.70;;;25.10;99.90;;;;;;10430091;28;20249;-84
2023/08/25 13:05:01;;;;;;;5.37;4.30;;;25.40;99.90;;;;;;10439157;28;20217;-84
2023/08/25 13:10:04;;;;;;;4.77;4.37;;;25.60;99.90;;;;;;10428513;28;20280;-84
2023/08/25 13:15:07;;;;;;;5.93;4.90;;;25.80;99.90;;;;;;10437862;28;20264;-85
2023/08/25 13:20:11;;;;;;;4.43;4.17;;;26.00;99.90;;;;;;10410965;28;20218;-84
2023/08/25 13:25:13;;;;;;;5.03;4.50;;;26.10;99.90;;;;;;10437500;28;20548;-84
2023/08/25 13:30:16;;;;;;;4.83;4.43;;;26.20;99.90;;;;;;10409079;28;20222;-85
2023/08/25 13:35:19;;;;;;;4.47;4.07;;;26.20;99.90;;;;;;10433188;28;20245;-84
2023/08/25 13:40:21;;;;;;;7.97;4.93;;;26.40;99.90;;;;;;10406494;28;20291;-83
2023/08/25 13:45:23;;;;;;;4.87;4.47;;;26.50;99.90;;;;;;10413117;28;20640;-84
2023/08/25 13:50:27;;;;;;;4.83;4.43;;;26.50;99.90;;;;;;10422373;28;20210;-85
2023/08/25 13:55:29;;;;;;;6.03;5.53;;;26.60;99.90;;;;;;10462458;28;20197;-85
2023/08/25 14:00:31;;;;;;;5.37;5.00;;;26.70;99.90;;;;;;10444767;28;20650;-85
2023/08/25 14:05:35;;;;;;;4.63;4.33;;;26.70;99.90;;;;;;10449238;28;20210;-84
2023/08/25 14:10:38;;;;;;;5.60;5.20;;;26.70;99.90;;;;;;10410594;28;20222;-84
2023/08/25 14:15:40;;;;;;;4.83;4.13;;;26.80;99.90;;;;;;10403727;28;20207;-84
2023/08/25 14:20:44;;;;;;;5.97;5.47;;;26.80;99.90;;;;;;10412722;28;20671;-84
2023/08/25 14:25:46;;;;;;;4.57;4.17;;;26.80;99.90;;;;;;10419788;28;20894;-84
2023/08/25 14:30:48;;;;;;;5.73;5.23;;;26.90;99.90;;;;;;10421679;28;20223;-83
2023/08/25 14:35:52;;;;;;;6.43;5.83;;;26.80;99.90;;;;;;10444726;28;20495;-85
2023/08/25 14:40:54;;;;;;;5.07;4.67;;;26.90;99.90;;;;;;10434893;28;20234;-84
2023/08/25 14:45:56;;;;;;;6.63;4.40;;;26.90;99.90;;;;;;10411226;28;20219;-83
2023/08/25 14:51:02;;;;;;;5.17;4.77;;;26.80;99.90;;;;;;10395573;28;20603;-84
2023/08/25 14:56:04;;;;;;;5.47;5.07;;;26.70;99.90;;;;;;10382836;28;20203;-84
2023/08/25 15:01:06;;;;;;;4.97;4.60;;;26.70;99.90;;;;;;10400643;28;20764;-82
2023/08/25 15:06:10;;;;;;;6.40;4.60;;;26.70;99.90;;;;;;10406528;28;20663;-84
2023/08/25 15:11:12;;;;;;;8.37;5.10;;;26.60;99.90;;;;;;10404845;28;20219;-83
2023/08/25 15:16:14;;;;;;;5.60;5.10;;;26.60;99.90;;;;;;10406503;28;20222;-83
2023/08/25 15:21:17;;;;;;;6.10;5.60;;;26.60;99.90;;;;;;10404521;28;20219;-82
2023/08/25 15:26:19;;;;;;;5.57;5.17;;;26.60;99.90;;;;;;10436136;28;20661;-84
2023/08/25 15:31:21;;;;;;;5.47;4.60;;;26.50;99.90;;;;;;10448316;28;20219;-83
2023/08/25 15:36:25;;;;;;;5.90;5.30;;;26.50;99.90;;;;;;10412268;28;20207;-82
2023/08/25 15:41:27;;;;;;;6.13;5.53;;;26.50;99.90;;;;;;10427402;28;20253;-84
2023/08/25 15:46:29;;;;;;;5.63;5.23;;;26.50;99.90;;;;;;10424544;28;20726;-84
2023/08/25 15:51:32;;;;;;;5.93;5.20;;;26.50;99.90;;;;;;10423760;28;20238;-83
2023/08/25 15:56:34;;;;;;;9.43;5.63;;;26.40;99.90;;;;;;10403512;28;20512;-83
2023/08/25 16:01:36;;;;;;;6.23;5.73;;;26.40;99.90;;;;;;10425198;28;20227;-83
2023/08/25 16:06:40;;;;;;;6.07;5.67;;;26.30;99.90;;;;;;10413213;28;20227;-83
2023/08/25 16:11:42;;;;;;;5.80;5.30;;;26.30;99.90;;;;;;10427506;28;20218;-84
2023/08/25 16:16:47;;;;;;;5.23;4.73;;;26.30;99.90;;;;;;10426391;28;20230;-85
2023/08/25 16:21:50;;;;;;;5.50;5.00;;;26.30;99.90;;;;;;10427882;28;20230;-84
2023/08/25 16:26:53;;;;;;;5.83;5.33;;;26.30;99.90;;;;;;10427810;28;20234;-84
2023/08/25 16:31:55;;;;;;;5.53;5.13;;;26.30;99.90;;;;;;10421176;28;20226;-84
2023/08/25 16:36:59;;;;;;;6.03;5.63;;;26.30;99.90;;;;;;10416930;28;20219;-85
2023/08/25 16:42:02;;;;;;;6.27;5.77;;;26.30;99.90;;;;;;10396743;28;20246;-85
2023/08/25 16:47:04;;;;;;;5.90;5.50;;;26.20;99.90;;;;;;10371925;28;20294;-85
2023/08/25 16:52:08;;;;;;;6.50;5.00;;;26.10;99.90;;;;;;10413248;28;20273;-85
2023/08/25 16:57:10;;;;;;;6.40;4.70;;;26.10;99.90;;;;;;10386363;28;20208;-84
2023/08/25 17:02:12;;;;;;;5.70;5.13;;;26.00;99.90;;;;;;10427208;28;20230;-85
2023/08/25 17:07:16;;;;;;;5.90;5.47;;;25.90;99.90;;;;;;10405473;28;20203;-85
2023/08/25 17:12:18;;;;;;;5.67;5.23;;;25.80;99.90;;;;;;10413954;28;20313;-85
2023/08/25 17:17:21;;;;;;;5.50;5.00;;;25.70;99.90;;;;;;10405087;28;20208;-86
2023/08/25 17:22:24;;;;;;;6.03;5.53;;;25.60;99.90;;;;;;10407048;28;20222;-85
2023/08/25 17:27:26;;;;;;;6.00;5.50;;;25.60;99.90;;;;;;10392810;28;20646;-86
2023/08/25 17:32:30;;;;;;;8.63;6.07;;;25.60;99.90;;;;;;10404557;28;20218;-85
2023/08/25 17:37:36;;;;;;;8.17;5.37;;;25.50;99.90;;;;;;10404526;28;20208;-85
2023/08/25 17:42:38;;;;;;;5.30;4.90;;;25.50;99.90;;;;;;10423975;28;20328;-85
2023/08/25 17:47:42;;;;;;;5.77;5.27;;;25.50;99.90;;;;;;10425120;28;20627;-85
2023/08/25 17:52:48;;;;;;;6.17;5.67;;;25.40;99.90;;;;;;10403325;28;20311;-85
2023/08/25 17:57:50;;;;;;;7.07;6.30;;;25.40;99.90;;;;;;10387471;28;20263;-85
2023/08/25 18:02:53;;;;;;;5.50;5.20;;;25.30;99.90;;;;;;10429566;28;20226;-85
2023/08/25 18:07:58;;;;;;;7.37;6.00;;;25.30;99.90;;;;;;10429221;28;20206;-85
2023/08/25 18:13:01;;;;;;;6.10;5.70;;;25.20;99.90;;;;;;10431090;28;20245;-85
2023/08/25 18:18:03;;;;;;;6.30;5.70;;;25.10;99.90;;;;;;10424248;28;20556;-85
2023/08/25 18:23:07;;;;;;;5.57;4.93;;;25.00;99.90;;;;;;10414370;28;20791;-85
2023/08/25 18:28:09;;;;;;;6.00;5.50;;;25.00;99.90;;;;;;10396933;28;20210;-85
2023/08/25 18:33:11;;;;;;;5.83;5.43;;;24.90;99.90;;;;;;10429263;28;20295;-84
2023/08/25 18:38:15;;;;;;;6.10;5.70;;;24.80;99.90;;;;;;10427191;28;20206;-85
2023/08/25 18:43:17;;;;;;;5.87;5.30;;;24.70;99.90;;;;;;10412187;28;20243;-86
2023/08/25 18:48:20;;;;;;;6.17;5.60;;;24.60;99.90;;;;;;10427308;28;20305;-85
2023/08/25 18:53:23;;;;;;;10.93;6.67;;;24.50;99.90;;;;;;10410158;28;20309;-85
2023/08/25 18:58:25;;;;;;;7.27;6.67;;;24.40;99.90;;;;;;10390117;28;20237;-85
2023/08/25 19:03:28;;;;;;;6.57;5.40;;;24.40;99.90;;;;;;10415080;28;20696;-85
2023/08/25 19:08:32;;;;;;;5.80;5.40;;;24.30;99.90;;;;;;10396119;28;20233;-84
2023/08/25 19:13:34;;;;;;;6.10;5.60;;;24.30;99.90;;;;;;10403532;28;20278;-85
2023/08/25 19:18:37;;;;;;;8.47;6.50;;;24.20;99.90;;;;;;10403415;28;20659;-85
2023/08/25 19:23:43;;;;;;;6.23;5.80;;;24.20;99.90;;;;;;10387199;28;20194;-85
2023/08/25 19:28:46;;;;;;;6.53;5.93;;;24.10;99.90;;;;;;10384304;28;20288;-84
2023/08/25 19:33:48;;;;;;;6.07;5.50;;;24.00;99.90;;;;;;10425105;28;20693;-84
2023/08/25 19:38:51;;;;;;;6.00;5.53;;;24.00;99.90;;;;;;10427553;28;20218;-85
2023/08/25 19:43:55;;;;;;;6.27;5.67;;;24.00;99.90;;;;;;10435220;28;20189;-86
2023/08/25 19:48:57;;;;;;;6.50;5.97;;;24.00;99.90;;;;;;10433372;28;20313;-85
2023/08/25 19:54:01;;;;;;;6.93;6.43;;;24.00;99.90;;;;;;10414730;28;20246;-84
2023/08/25 19:59:04;;;;;;;6.83;6.33;;;24.00;99.90;;;;;;10412618;28;20597;-85
2023/08/25 20:04:07;;;;;;;7.33;6.63;;;24.00;99.90;;;;;;10430183;28;20202;-84
2023/08/25 20:09:11;;;;;;;7.40;6.80;;;24.00;99.90;;;;;;10404396;28;20222;-85
2023/08/25 20:14:13;;;;;;;8.03;6.17;;;23.90;99.90;;;;;;10429854;28;20772;-85
2023/08/25 20:19:18;;;;;;;10.13;7.70;;;23.90;99.90;;;;;;10381755;28;20709;-85
2023/08/25 20:24:21;;;;;;;6.90;6.40;;;23.90;99.90;;;;;;10430886;28;20221;-84
2023/08/25 20:29:24;;;;;;;9.60;6.77;;;23.90;99.90;;;;;;10405184;28;20226;-85
2023/08/25 20:34:26;;;;;;;8.20;7.50;;;23.90;99.90;;;;;;10430350;28;20795;-85
2023/08/25 20:39:29;;;;;;;7.90;7.30;;;23.90;99.90;;;;;;10407364;28;20223;-85
2023/08/25 20:44:31;;;;;;;7.60;6.90;;;23.90;99.90;;;;;;10399556;28;20208;-85
2023/08/25 20:49:34;;;;;;;7.60;7.00;;;24.00;99.90;;;;;;10447326;28;20217;-84
2023/08/25 20:54:37;;;;;;;6.97;6.43;;;24.00;99.90;;;;;;10422456;28;20276;-85
2023/08/25 20:59:39;;;;;;;7.17;6.60;;;23.90;99.90;;;;;;10415076;28;20249;-85
2023/08/25 21:04:41;;;;;;;6.97;6.37;;;24.00;99.90;;;;;;10409208;28;20244;-85
2023/08/25 21:09:46;;;;;;;6.70;6.13;;;23.90;99.90;;;;;;10434876;28;20256;-84
2023/08/25 21:14:49;;;;;;;29.90;26.13;;;23.90;99.90;;;;;;10426010;28;20236;-84
2023/08/25 21:19:51;;;;;;;13.37;12.00;;;23.90;99.90;;;;;;10420019;28;20767;-85
2023/08/25 21:24:54;;;;;;;14.23;13.10;;;23.80;99.90;;;;;;10428025;28;20557;-84
2023/08/25 21:29:56;;;;;;;17.97;16.67;;;23.60;99.90;;;;;;10420467;28;20222;-84
2023/08/25 21:35:00;;;;;;;17.70;16.50;;;23.40;99.90;;;;;;10414264;28;20222;-85
2023/08/25 21:40:25;;;;;;;17.07;15.97;;;23.20;99.90;;;;;;10423015;28;20262;-84
2023/08/25 21:45:50;;;;;;;16.87;15.73;;;23.00;99.90;;;;;;10414225;28;20202;-84
2023/08/25 21:51:01;;;;;;;15.77;14.77;;;22.80;99.90;;;;;;10416145;28;20217;-84
2023/08/25 21:56:22;;;;;;;16.93;15.63;;;22.70;99.90;;;;;;10428444;28;20229;-84
2023/08/25 22:01:35;;;;;;;14.50;13.50;;;22.70;99.90;;;;;;10422533;28;20313;-85
2023/08/25 22:06:49;;;;;;;17.07;15.87;;;22.60;99.90;;;;;;10412555;28;20204;-84
2023/08/25 22:12:13;;;;;;;16.80;15.80;;;22.50;99.90;;;;;;10409338;28;20288;-85
2023/08/25 22:17:25;;;;;;;17.57;16.20;;;22.50;99.90;;;;;;10430915;28;20200;-85
2023/08/25 22:22:40;;;;;;;17.57;16.20;;;22.50;99.90;;;;;;10424244;28;20217;-85
2023/08/25 22:27:55;;;;;;;14.47;13.37;;;22.40;99.90;;;;;;10404174;28;20211;-86
2023/08/25 22:33:09;;;;;;;18.33;16.93;;;22.40;99.90;;;;;;10405076;28;20301;-85
2023/08/25 22:38:25;;;;;;;14.00;12.83;;;22.40;99.90;;;;;;10390718;28;20696;-85
2023/08/25 22:43:46;;;;;;;17.17;15.97;;;22.50;99.90;;;;;;10428776;28;20202;-85
2023/08/25 22:49:05;;;;;;;16.00;14.57;;;22.40;99.90;;;;;;10410625;28;20215;-86
2023/08/25 22:54:19;;;;;;;18.00;16.80;;;22.40;99.90;;;;;;10421100;28;20721;-85
2023/08/25 22:59:25;;;;;;;17.17;15.93;;;22.40;99.90;;;;;;10415462;28;20233;-85
2023/08/25 23:04:36;;;;;;;18.30;16.67;;;22.40;99.90;;;;;;10430924;28;20624;-85
2023/08/25 23:09:49;;;;;;;18.27;16.70;;;22.40;99.90;;;;;;10450487;22;20221;-83
2023/08/25 23:14:52;;;;;;;14.47;13.30;;;22.40;99.90;;;;;;10488240;28;20267;-83
2023/08/25 23:19:54;;;;;;;20.63;18.70;;;22.40;99.90;;;;;;10488503;28;20289;-82
2023/08/25 23:24:56;;;;;;;18.90;17.20;;;22.30;99.90;;;;;;10487448;28;20194;-83
2023/08/25 23:30:00;;;;;;;14.63;13.30;;;22.30;99.90;;;;;;10481272;28;20252;-84
2023/08/25 23:35:02;;;;;;;18.47;17.00;;;22.20;99.90;;;;;;10486583;28;20226;-83
2023/08/25 23:40:05;;;;;;;16.97;15.67;;;21.90;99.90;;;;;;10467956;28;20220;-83
2023/08/25 23:45:09;;;;;;;17.50;16.00;;;21.80;99.90;;;;;;10469890;28;20198;-83
2023/08/25 23:50:11;;;;;;;16.10;14.97;;;21.70;99.90;;;;;;10481989;28;20259;-82
2023/08/25 23:55:14;;;;;;;16.43;15.03;;;21.60;99.90;;;;;;10477595;28;20232;-82
